createdAt,value
2018-03-11T00:00:50.732Z,4.07
2018-03-11T00:03:18.508Z,5.20
2018-03-11T00:05:46.131Z,4.43
2018-03-11T00:08:14.170Z,4.93
2018-03-11T00:10:41.794Z,3.73
2018-03-11T00:13:09.875Z,3.97
2018-03-11T00:15:37.434Z,3.67
2018-03-11T00:18:05.237Z,4.23
2018-03-11T00:20:32.841Z,27.60
2018-03-11T00:23:00.400Z,3.70
2018-03-11T00:25:28.006Z,4.37
2018-03-11T00:27:55.625Z,4.13
2018-03-11T00:30:23.212Z,4.97
2018-03-11T00:32:51.082Z,4.67
2018-03-11T00:35:18.735Z,3.80
2018-03-11T00:37:46.288Z,3.27
2018-03-11T00:40:13.866Z,4.73
2018-03-11T00:42:41.769Z,6.43
2018-03-11T00:45:09.823Z,5.07
2018-03-11T00:47:37.385Z,4.20
2018-03-11T00:50:05.012Z,4.20
2018-03-11T00:52:32.555Z,3.97
2018-03-11T00:55:00.108Z,3.97
2018-03-11T00:57:27.728Z,4.10
2018-03-11T00:59:55.380Z,4.03
2018-03-11T01:02:22.979Z,3.30
2018-03-11T01:04:50.552Z,3.77
2018-03-11T01:07:18.113Z,3.27
2018-03-11T01:09:45.678Z,3.47
2018-03-11T01:12:13.325Z,4.53
2018-03-11T01:14:40.970Z,3.10
2018-03-11T01:17:08.681Z,4.10
2018-03-11T01:19:36.245Z,3.80
2018-03-11T01:22:03.875Z,3.10
2018-03-11T01:24:31.429Z,3.73
2018-03-11T01:26:59.007Z,3.33
2018-03-11T01:29:26.598Z,3.60
2018-03-11T01:31:54.210Z,4.57
2018-03-11T01:34:21.805Z,3.03
2018-03-11T01:36:49.429Z,4.23
2018-03-11T01:39:16.997Z,3.90
2018-03-11T01:41:44.611Z,3.00
2018-03-11T01:44:12.487Z,4.60
2018-03-11T01:46:40.031Z,2.93
2018-03-11T01:49:07.948Z,4.03
2018-03-11T01:51:35.487Z,4.60
2018-03-11T01:54:03.070Z,3.50
2018-03-11T01:56:30.669Z,2.80
2018-03-11T01:58:58.215Z,2.73
2018-03-11T02:01:25.784Z,3.90
2018-03-11T02:03:53.552Z,4.77
2018-03-11T02:06:21.274Z,2.43
2018-03-11T02:08:48.910Z,3.00
2018-03-11T02:11:16.527Z,3.30
2018-03-11T02:13:44.144Z,2.90
2018-03-11T02:16:11.734Z,2.73
2018-03-11T02:18:39.374Z,4.03
2018-03-11T02:21:10.563Z,3.40
2018-03-11T02:23:38.133Z,5.37
2018-03-11T02:26:05.837Z,4.60
2018-03-11T02:28:33.454Z,5.90
2018-03-11T02:31:01.057Z,7.13
2018-03-11T02:33:28.693Z,5.37
2018-03-11T02:35:56.385Z,3.27
2018-03-11T02:38:23.979Z,2.70
2018-03-11T02:40:51.554Z,2.07
2018-03-11T02:43:19.116Z,2.77
2018-03-11T02:45:46.694Z,2.97
2018-03-11T02:48:14.338Z,2.37
2018-03-11T02:50:42.136Z,3.10
2018-03-11T02:53:10.095Z,3.63
2018-03-11T02:55:37.703Z,2.70
2018-03-11T02:58:05.265Z,2.30
2018-03-11T03:00:32.821Z,2.30
2018-03-11T03:03:00.415Z,2.63
2018-03-11T03:05:28.123Z,2.43
2018-03-11T03:07:57.197Z,2.63
2018-03-11T03:10:24.809Z,2.80
2018-03-11T03:12:52.351Z,2.90
2018-03-11T03:15:19.978Z,2.40
2018-03-11T03:18:00.245Z,2.23
2018-03-11T03:20:28.237Z,2.00
2018-03-11T03:22:56.269Z,2.30
2018-03-11T03:25:24.234Z,3.00
2018-03-11T03:27:52.151Z,2.50
2018-03-11T03:30:19.724Z,2.40
2018-03-11T03:32:47.288Z,2.67
2018-03-11T03:35:14.956Z,2.90
2018-03-11T03:37:42.573Z,2.30
2018-03-11T03:40:10.874Z,3.07
2018-03-11T03:42:40.534Z,1.90
2018-03-11T03:45:08.120Z,2.40
2018-03-11T03:47:36.270Z,3.43
2018-03-11T03:50:03.893Z,3.87
2018-03-11T03:52:31.501Z,2.20
2018-03-11T03:54:59.146Z,2.80
2018-03-11T03:57:27.044Z,1.90
2018-03-11T03:59:54.653Z,3.80
2018-03-11T04:02:22.477Z,2.67
2018-03-11T04:04:50.268Z,3.40
2018-03-11T04:07:18.003Z,2.23
2018-03-11T04:09:45.570Z,2.10
2018-03-11T04:12:13.156Z,1.70
2018-03-11T04:14:40.718Z,2.77
2018-03-11T04:17:08.739Z,2.07
2018-03-11T04:19:36.379Z,2.90
2018-03-11T04:22:03.966Z,2.23
2018-03-11T04:24:31.585Z,2.57
2018-03-11T04:26:59.118Z,2.90
2018-03-11T04:29:27.203Z,4.90
2018-03-11T04:31:54.867Z,3.33
2018-03-11T04:34:22.419Z,3.57
2018-03-11T04:36:50.033Z,5.20
2018-03-11T04:39:17.592Z,2.87
2018-03-11T04:41:45.179Z,2.60
2018-03-11T04:44:12.859Z,2.70
2018-03-11T04:46:40.429Z,2.10
2018-03-11T04:49:08.059Z,3.40
2018-03-11T04:51:35.754Z,2.93
2018-03-11T04:54:03.692Z,9.30
2018-03-11T04:56:31.276Z,2.20
2018-03-11T04:58:58.846Z,1.87
2018-03-11T05:01:26.461Z,3.00
2018-03-11T05:03:54.170Z,3.10
2018-03-11T05:06:21.991Z,2.53
2018-03-11T05:08:49.673Z,5.20
2018-03-11T05:11:17.255Z,7.87
2018-03-11T05:13:44.840Z,5.60
2018-03-11T05:16:12.394Z,4.10
2018-03-11T05:18:39.996Z,5.80
2018-03-11T05:21:07.623Z,3.77
2018-03-11T05:23:35.202Z,3.97
2018-03-11T05:28:52.885Z,4.57
2018-03-11T05:31:29.331Z,3.50
2018-03-11T05:33:56.882Z,4.80
2018-03-11T05:36:25.340Z,2.40
2018-03-11T05:38:52.914Z,2.63
2018-03-11T05:41:20.466Z,3.60
2018-03-11T05:46:20.043Z,3.33
2018-03-11T05:48:47.593Z,3.77
2018-03-11T05:51:15.198Z,3.87
2018-03-11T05:53:46.688Z,3.43
2018-03-11T05:56:14.261Z,3.10
2018-03-11T05:58:41.896Z,2.80
2018-03-11T06:01:09.576Z,3.13
2018-03-11T06:03:37.129Z,4.13
2018-03-11T06:06:04.680Z,4.03
2018-03-11T06:08:32.241Z,3.53
2018-03-11T06:10:59.821Z,3.43
2018-03-11T06:13:27.408Z,4.07
2018-03-11T06:15:54.982Z,3.20
2018-03-11T06:18:22.584Z,4.20
2018-03-11T06:20:50.142Z,4.60
2018-03-11T06:23:17.710Z,5.40
2018-03-11T06:25:45.358Z,5.27
2018-03-11T06:28:12.976Z,5.10
2018-03-11T06:30:40.572Z,2.43
2018-03-11T06:33:08.454Z,3.10
2018-03-11T06:35:36.068Z,2.80
2018-03-11T06:38:03.652Z,2.73
2018-03-11T06:40:32.166Z,3.03
2018-03-11T06:42:59.731Z,3.83
2018-03-11T06:45:27.590Z,2.80
2018-03-11T06:47:55.219Z,3.40
2018-03-11T06:50:22.822Z,5.03
2018-03-11T06:52:50.457Z,4.53
2018-03-11T06:55:18.055Z,4.40
2018-03-11T06:57:45.644Z,4.30
2018-03-11T07:00:13.225Z,4.20
2018-03-11T07:02:42.879Z,5.17
2018-03-11T07:05:10.899Z,4.53
2018-03-11T07:07:38.482Z,4.47
2018-03-11T07:10:07.288Z,3.83
2018-03-11T07:12:34.930Z,4.53
2018-03-11T07:15:02.530Z,6.13
2018-03-11T07:17:30.118Z,7.20
2018-03-11T07:19:57.756Z,4.10
2018-03-11T07:22:25.509Z,3.67
2018-03-11T07:24:53.106Z,5.30
2018-03-11T07:27:20.863Z,4.30
2018-03-11T07:29:48.454Z,4.30
2018-03-11T07:32:16.040Z,4.50
2018-03-11T07:34:45.263Z,4.80
2018-03-11T07:37:13.815Z,3.93
2018-03-11T07:39:41.494Z,4.53
2018-03-11T07:42:09.140Z,5.10
2018-03-11T07:44:36.711Z,5.73
2018-03-11T07:47:04.354Z,5.70
2018-03-11T07:49:32.394Z,5.43
2018-03-11T07:52:00.026Z,5.13
2018-03-11T07:54:27.646Z,3.67
2018-03-11T07:56:55.265Z,4.57
2018-03-11T07:59:22.851Z,5.03
2018-03-11T08:01:50.464Z,4.37
2018-03-11T08:04:18.891Z,4.27
2018-03-11T08:06:46.540Z,4.50
2018-03-11T08:09:14.251Z,4.90
2018-03-11T08:11:42.297Z,4.43
2018-03-11T08:14:09.992Z,4.30
2018-03-11T08:16:37.628Z,4.60
2018-03-11T08:19:05.291Z,5.07
2018-03-11T08:21:33.571Z,4.90
2018-03-11T08:24:01.340Z,5.47
2018-03-11T08:26:28.915Z,7.70
2018-03-11T08:28:56.571Z,6.57
2018-03-11T08:31:24.179Z,8.23
2018-03-11T08:33:51.762Z,7.77
2018-03-11T08:36:19.645Z,7.00
2018-03-11T08:38:47.239Z,10.50
2018-03-11T08:41:14.860Z,10.70
2018-03-11T08:43:42.459Z,10.53
2018-03-11T08:46:10.183Z,11.23
2018-03-11T08:48:37.783Z,9.43
2018-03-11T08:51:05.550Z,12.63
2018-03-11T08:53:33.152Z,13.20
2018-03-11T08:56:00.742Z,12.20
2018-03-11T08:58:29.044Z,13.67
2018-03-11T09:00:56.638Z,12.07
2018-03-11T09:03:24.921Z,12.77
2018-03-11T09:05:52.525Z,11.73
2018-03-11T09:08:20.156Z,13.53
2018-03-11T09:10:47.743Z,12.80
2018-03-11T09:13:15.372Z,10.87
2018-03-11T09:15:43.329Z,13.10
2018-03-11T09:18:10.913Z,12.47
2018-03-11T09:20:38.540Z,11.50
2018-03-11T09:23:06.338Z,11.53
2018-03-11T09:25:34.153Z,10.40
2018-03-11T09:30:52.147Z,10.10
2018-03-11T09:33:19.745Z,8.67
2018-03-11T09:35:47.365Z,9.53
2018-03-11T09:38:14.992Z,9.80
2018-03-11T09:40:42.864Z,8.07
2018-03-11T09:43:10.713Z,8.98
2018-03-11T09:45:38.416Z,11.60
2018-03-11T09:48:05.934Z,7.90
2018-03-11T09:50:34.598Z,6.70
2018-03-11T09:53:02.164Z,7.50
2018-03-11T09:55:29.769Z,6.20
2018-03-11T09:57:57.430Z,5.73
2018-03-11T10:00:25.021Z,5.77
2018-03-11T10:02:52.630Z,6.37
2018-03-11T10:05:20.297Z,5.67
2018-03-11T10:07:47.848Z,5.77
2018-03-11T10:10:16.105Z,5.23
2018-03-11T10:12:44.905Z,5.20
2018-03-11T10:15:12.610Z,5.80
2018-03-11T10:17:40.364Z,5.03
2018-03-11T10:20:08.026Z,6.40
2018-03-11T10:22:35.650Z,6.67
2018-03-11T10:25:03.268Z,4.87
2018-03-11T10:27:30.890Z,5.43
2018-03-11T10:29:58.497Z,5.70
2018-03-11T10:32:26.981Z,5.50
2018-03-11T10:34:54.569Z,5.70
2018-03-11T10:37:22.143Z,5.13
2018-03-11T10:39:49.729Z,5.30
2018-03-11T10:42:17.285Z,5.43
2018-03-11T10:44:44.864Z,5.80
2018-03-11T10:47:12.517Z,6.20
2018-03-11T10:49:40.118Z,5.47
2018-03-11T10:52:07.730Z,5.63
2018-03-11T10:54:37.377Z,7.30
2018-03-11T10:57:04.981Z,6.90
2018-03-11T10:59:32.575Z,6.33
2018-03-11T11:05:08.826Z,7.00
2018-03-11T11:07:36.500Z,6.20
2018-03-11T11:10:07.045Z,6.87
2018-03-11T11:12:35.231Z,6.47
2018-03-11T11:15:03.716Z,5.80
2018-03-11T11:17:31.287Z,6.23
2018-03-11T11:20:00.648Z,7.43
2018-03-11T11:22:29.935Z,6.93
2018-03-11T11:24:58.485Z,7.27
2018-03-11T11:27:26.509Z,6.43
2018-03-11T11:29:54.110Z,6.97
2018-03-11T11:32:21.780Z,7.00
2018-03-11T11:34:49.360Z,7.43
2018-03-11T11:37:19.288Z,7.07
2018-03-11T11:39:46.984Z,5.60
2018-03-11T11:42:14.736Z,7.07
2018-03-11T11:44:43.414Z,7.07
2018-03-11T11:47:11.187Z,6.97
2018-03-11T11:49:38.782Z,7.43
2018-03-11T11:52:07.726Z,7.10
2018-03-11T11:54:35.304Z,7.23
2018-03-11T11:57:04.210Z,7.60
2018-03-11T11:59:31.862Z,7.40
2018-03-11T12:01:59.482Z,7.17
2018-03-11T12:04:27.039Z,7.43
2018-03-11T12:06:54.695Z,7.93
2018-03-11T12:09:22.660Z,7.80
2018-03-11T12:11:50.296Z,8.10
2018-03-11T12:14:17.989Z,8.37
2018-03-11T12:16:45.536Z,7.97
2018-03-11T12:19:13.462Z,7.83
2018-03-11T12:21:41.019Z,8.40
2018-03-11T12:24:08.612Z,7.80
2018-03-11T12:26:36.326Z,8.13
2018-03-11T12:29:04.042Z,8.87
2018-03-11T12:31:33.701Z,7.60
2018-03-11T12:34:01.338Z,7.70
2018-03-11T12:36:30.166Z,8.40
2018-03-11T12:38:58.025Z,9.80
2018-03-11T12:41:26.156Z,9.60
2018-03-11T12:43:53.800Z,9.40
2018-03-11T12:46:21.445Z,9.20
2018-03-11T12:48:49.053Z,9.60
2018-03-11T12:51:17.425Z,9.90
2018-03-11T12:53:45.328Z,9.80
2018-03-11T12:56:12.968Z,9.47
2018-03-11T12:58:40.563Z,10.03
2018-03-11T13:01:08.154Z,8.43
2018-03-11T13:03:35.817Z,10.23
2018-03-11T13:06:03.527Z,10.10
2018-03-11T13:08:31.470Z,11.80
2018-03-11T13:10:59.061Z,12.20
2018-03-11T13:13:28.112Z,9.57
2018-03-11T13:15:55.921Z,11.47
2018-03-11T13:18:23.537Z,13.43
2018-03-11T13:21:11.955Z,13.70
2018-03-11T13:23:39.654Z,11.70
2018-03-11T13:26:07.367Z,17.83
2018-03-11T13:28:45.798Z,13.90
2018-03-11T13:31:13.508Z,10.43
2018-03-11T13:33:52.957Z,10.47
2018-03-11T13:36:20.554Z,9.70
2018-03-11T13:38:59.990Z,10.87
2018-03-11T13:41:27.557Z,12.10
2018-03-11T13:43:55.172Z,11.50
2018-03-11T13:46:34.581Z,10.30
2018-03-11T13:49:02.195Z,10.33
2018-03-11T13:51:41.890Z,9.20
2018-03-11T13:54:09.585Z,11.73
2018-03-11T13:56:37.208Z,10.17
2018-03-11T13:59:04.922Z,10.03
2018-03-11T14:01:32.542Z,9.97
2018-03-11T14:04:00.552Z,12.57
2018-03-11T14:06:31.494Z,12.37
2018-03-11T14:08:59.028Z,11.60
2018-03-11T14:11:28.886Z,13.17
2018-03-11T14:13:56.688Z,11.63
2018-03-11T14:16:24.427Z,10.03
2018-03-11T14:18:52.147Z,14.50
2018-03-11T14:21:24.343Z,26.50
2018-03-11T14:23:52.578Z,53.40
2018-03-11T14:26:20.256Z,33.40
2018-03-11T14:28:48.424Z,17.33
2018-03-11T14:31:16.912Z,13.47
2018-03-11T14:33:44.575Z,19.30
2018-03-11T14:36:12.237Z,33.20
2018-03-11T14:38:42.078Z,34.50
2018-03-11T14:41:12.183Z,16.90
2018-03-11T14:43:39.809Z,13.77
2018-03-11T14:46:22.621Z,12.60
2018-03-11T14:51:44.152Z,14.40
2018-03-11T15:00:07.944Z,12.57
2018-03-11T15:33:00.456Z,11.70
2018-03-11T15:40:46.002Z,11.70
2018-03-11T15:43:22.122Z,11.73
2018-03-11T15:45:50.232Z,11.27
2018-03-11T15:48:17.906Z,11.50
2018-03-11T15:50:45.650Z,12.70
2018-03-11T15:53:15.527Z,13.73
2018-03-11T15:55:43.393Z,13.00
2018-03-11T15:58:11.248Z,13.17
2018-03-11T16:00:38.960Z,10.70
2018-03-11T16:03:07.225Z,10.47
2018-03-11T16:05:35.868Z,11.47
2018-03-11T16:08:03.746Z,10.40
2018-03-11T16:10:31.876Z,12.23
2018-03-11T16:12:59.620Z,11.03
2018-03-11T16:15:28.180Z,12.57
2018-03-11T16:17:55.996Z,9.03
2018-03-11T16:20:24.073Z,9.17
2018-03-11T16:22:51.765Z,6.73
2018-03-11T16:25:19.521Z,7.20
2018-03-11T16:27:48.476Z,8.30
2018-03-11T16:30:16.469Z,11.23
2018-03-11T16:32:44.388Z,9.60
2018-03-11T16:37:44.073Z,8.10
2018-03-11T16:40:12.789Z,8.47
2018-03-11T16:42:40.478Z,9.97
2018-03-11T16:45:09.756Z,8.17
2018-03-11T16:47:37.827Z,7.63
2018-03-11T16:50:05.668Z,8.03
2018-03-11T16:52:34.289Z,9.37
2018-03-11T16:55:02.568Z,8.30
2018-03-11T16:57:30.550Z,8.10
2018-03-11T16:59:58.528Z,7.90
2018-03-11T17:02:26.644Z,7.80
2018-03-11T17:04:54.684Z,8.03
2018-03-11T17:07:22.337Z,8.50
2018-03-11T17:09:49.986Z,7.17
2018-03-11T17:12:20.419Z,8.10
2018-03-11T17:14:47.987Z,7.63
2018-03-11T17:17:15.679Z,8.63
2018-03-11T17:19:43.306Z,8.30
2018-03-11T17:22:11.038Z,9.60
2018-03-11T17:24:38.674Z,22.03
2018-03-11T17:27:06.746Z,8.30
2018-03-11T17:29:35.510Z,97.97
2018-03-11T17:32:03.183Z,106.50
2018-03-11T17:34:30.771Z,38.67
2018-03-11T17:36:58.344Z,7.87
2018-03-11T17:39:26.187Z,7.43
2018-03-11T17:41:53.740Z,7.87
2018-03-11T17:44:22.124Z,9.97
2018-03-11T17:46:49.786Z,11.40
2018-03-11T17:49:17.393Z,11.97
2018-03-11T17:51:45.005Z,15.73
2018-03-11T17:54:12.742Z,15.40
2018-03-11T17:56:56.725Z,112.50
2018-03-11T17:59:30.059Z,65.93
2018-03-11T18:02:29.697Z,47.77
2018-03-11T18:04:59.149Z,19.17
2018-03-11T18:07:26.795Z,14.20
2018-03-11T18:09:54.359Z,37.83
2018-03-11T18:12:22.893Z,11.03
2018-03-11T18:14:50.517Z,12.00
2018-03-11T18:17:18.159Z,22.70
2018-03-11T18:19:45.762Z,9.13
2018-03-11T18:22:13.413Z,10.47
2018-03-11T18:24:41.339Z,19.67
2018-03-11T18:27:10.381Z,16.63
2018-03-11T18:29:37.974Z,9.50
2018-03-11T18:32:05.642Z,10.70
2018-03-11T18:34:33.288Z,8.30
2018-03-11T18:37:00.870Z,9.20
2018-03-11T18:39:28.541Z,9.07
2018-03-11T18:41:56.211Z,17.87
2018-03-11T18:44:23.967Z,8.70
2018-03-11T18:46:51.658Z,9.47
2018-03-11T18:49:19.277Z,12.23
2018-03-11T18:51:47.236Z,13.67
2018-03-11T18:54:15.050Z,31.30
2018-03-11T18:59:20.703Z,24.70
2018-03-11T19:01:56.901Z,17.40
2018-03-11T19:04:28.246Z,17.33
2018-03-11T19:09:42.055Z,18.70
2018-03-11T19:12:25.797Z,10.13
2018-03-11T19:14:54.094Z,8.70
2018-03-11T19:17:23.708Z,7.87
2018-03-11T19:20:20.632Z,8.20
2018-03-11T19:25:43.876Z,10.33
2018-03-11T19:28:12.713Z,9.30
2018-03-11T19:31:00.150Z,11.50
2018-03-11T19:33:27.806Z,9.50
2018-03-11T19:36:01.381Z,11.30
2018-03-11T19:38:32.106Z,9.60
2018-03-11T19:46:04.695Z,10.60
2018-03-11T19:48:32.390Z,8.40
2018-03-11T19:53:35.491Z,9.90
2018-03-11T19:56:06.179Z,7.37
2018-03-11T20:03:37.501Z,9.70
2018-03-11T20:06:07.454Z,10.00
2018-03-11T20:08:35.667Z,9.43
2018-03-11T20:13:35.525Z,9.33
2018-03-11T20:18:35.935Z,8.50
2018-03-11T20:21:03.586Z,7.73
2018-03-11T20:23:31.197Z,7.30
2018-03-11T20:25:58.837Z,6.53
2018-03-11T20:28:28.545Z,6.83
2018-03-11T20:30:56.222Z,7.20
2018-03-11T20:33:26.129Z,7.13
2018-03-11T20:38:44.306Z,12.20
2018-03-11T20:41:11.962Z,15.87
2018-03-11T20:43:39.687Z,12.57
2018-03-11T20:46:07.609Z,9.83
2018-03-11T20:48:35.489Z,11.33
2018-03-11T20:51:03.110Z,11.30
2018-03-11T20:53:32.212Z,11.10
2018-03-11T20:56:00.695Z,12.40
2018-03-11T20:58:28.393Z,13.37
2018-03-11T21:00:56.020Z,9.47
2018-03-11T21:03:24.560Z,10.27
2018-03-11T21:05:52.567Z,9.70
2018-03-11T21:08:22.707Z,8.00
2018-03-11T21:10:50.655Z,12.67
2018-03-11T21:13:18.848Z,7.77
2018-03-11T21:15:46.902Z,11.10
2018-03-11T21:18:14.521Z,9.17
2018-03-11T21:20:43.012Z,16.03
2018-03-11T21:23:13.557Z,7.30
2018-03-11T21:25:42.985Z,14.17
2018-03-11T21:28:10.882Z,13.37
2018-03-11T21:30:38.521Z,14.50
2018-03-11T21:33:06.472Z,13.20
2018-03-11T21:35:34.191Z,12.13
2018-03-11T21:38:01.859Z,9.70
2018-03-11T21:40:34.199Z,8.10
2018-03-11T21:43:01.826Z,35.77
2018-03-11T21:45:29.656Z,8.27
2018-03-11T21:47:57.353Z,7.70
2018-03-11T21:50:25.098Z,6.57
2018-03-11T21:52:52.716Z,6.70
2018-03-11T21:55:20.358Z,5.80
2018-03-11T21:57:48.029Z,7.73
2018-03-11T22:00:15.641Z,6.90
2018-03-11T22:02:43.275Z,6.67
2018-03-11T22:05:11.771Z,6.53
2018-03-11T22:07:39.344Z,5.83
2018-03-11T22:10:06.990Z,4.97
2018-03-11T22:12:34.605Z,6.20
2018-03-11T22:15:02.229Z,5.40
2018-03-11T22:17:29.812Z,5.10
2018-03-11T22:19:57.414Z,6.03
2018-03-11T22:22:25.012Z,6.60
2018-03-11T22:24:52.580Z,5.70
2018-03-11T22:27:20.213Z,4.53
2018-03-11T22:29:47.769Z,5.17
2018-03-11T22:32:15.340Z,4.43
2018-03-11T22:34:43.182Z,4.07
2018-03-11T22:37:11.142Z,4.43
2018-03-11T22:39:38.853Z,5.37
2018-03-11T22:42:06.676Z,4.73
2018-03-11T22:44:34.234Z,5.03
2018-03-11T22:47:01.857Z,4.50
2018-03-11T22:49:29.784Z,5.57
2018-03-11T22:51:57.386Z,3.90
2018-03-11T22:54:24.979Z,4.87
2018-03-11T22:56:52.557Z,4.03
2018-03-11T22:59:20.119Z,3.53
2018-03-11T23:01:47.732Z,5.83
2018-03-11T23:04:15.326Z,4.17
2018-03-11T23:06:42.998Z,7.50
2018-03-11T23:09:14.663Z,5.20
2018-03-11T23:11:42.359Z,5.50
2018-03-11T23:14:16.887Z,3.87
2018-03-11T23:16:44.512Z,3.90
2018-03-11T23:19:22.405Z,4.40
2018-03-11T23:21:52.785Z,4.60
2018-03-11T23:24:20.379Z,6.33
2018-03-11T23:26:47.996Z,5.00
2018-03-11T23:29:16.035Z,3.20
2018-03-11T23:31:43.641Z,3.13
2018-03-11T23:34:11.213Z,3.10
2018-03-11T23:36:38.814Z,3.73
2018-03-11T23:39:07.683Z,2.90
2018-03-11T23:41:35.288Z,3.60
2018-03-11T23:44:02.883Z,3.37
2018-03-11T23:46:30.495Z,3.00
2018-03-11T23:48:58.214Z,4.70
2018-03-11T23:51:25.778Z,10.20
2018-03-11T23:53:53.432Z,8.30
2018-03-11T23:56:21.912Z,14.40
2018-03-11T23:58:49.515Z,3.50
